Погода Бакбактына неделю

Алматинская область, Казахстан

21 - 27 июля
  • 21июля
    Сегодня
    +19°
    +33°
    Ясно и безоблачно
    ВремяПогодаТемператураВлажностьДавлениеВетер, м/сВероятность осадков
    02:00Ясно и безоблачно+20°C66 %720 мм1.2 м/с2 %
    05:00Ясно и безоблачно+19°C67 %720 мм2.4 м/с2 %
    08:00Практически безоблачно+26°C43 %721 мм3.0 м/с2 %
    11:00Ясно и безоблачно+30°C27 %722 мм4.5 м/с2 %
    14:00Ясно и безоблачно+33°C22 %721 мм6.4 м/с2 %
    17:00Ясно и безоблачно+32°C22 %721 мм6.6 м/с2 %
    20:00Ясно и безоблачно+27°C30 %722 мм3.3 м/с2 %
    23:00Ясно и безоблачно+23°C45 %721 мм3.1 м/с2 %
  • 22июля
    Понедельник
    +20°
    +34°
    Ясно и безоблачно
    ВремяПогодаТемператураВлажностьДавлениеВетер, м/сВероятность осадков
    02:00Ясно и безоблачно+20°C56 %721 мм1.4 м/с2 %
    05:00Ясно и безоблачно+19°C57 %721 мм0.6 м/с2 %
    08:00Ясно и безоблачно+27°C40 %722 мм1.1 м/с2 %
    11:00Ясно и безоблачно+30°C24 %722 мм2.4 м/с2 %
    14:00Ясно и безоблачно+33°C21 %721 мм3.6 м/с2 %
    17:00Ясно и безоблачно+33°C21 %721 мм3.8 м/с2 %
    20:00Ясно и безоблачно+29°C27 %721 мм2.5 м/с2 %
    23:00Облачно с прояснениями+25°C40 %721 мм5.3 м/с2 %
  • 23июля
    Вторник
    +23°
    +36°
    Облачно с прояснениями
    ВремяПогодаТемператураВлажностьДавлениеВетер, м/сВероятность осадков
    02:00Ясно и безоблачно+23°C46 %720 мм4.0 м/с2 %
    05:00Ясно и безоблачно+20°C56 %720 мм2.7 м/с2 %
    08:00Ясно и безоблачно+29°C39 %721 мм2.8 м/с2 %
    11:00Ясно и безоблачно+33°C21 %720 мм3.0 м/с2 %
    14:00Облачно с прояснениями+36°C19 %719 мм4.0 м/с2 %
    17:00Облачно с прояснениями+35°C19 %719 мм4.3 м/с2 %
    20:00Облачно с прояснениями+32°C25 %719 мм2.1 м/с2 %
    23:00Облачно с прояснениями+28°C28 %719 мм1.6 м/с2 %
  • 24июля
    Среда
    +23°
    +37°
    Ясно и безоблачно
    ВремяПогодаТемператураВлажностьДавлениеВетер, м/сВероятность осадков
    02:00Небольшая облачность+26°C29 %719 мм1.7 м/с3 %
    05:00Практически безоблачно+23°C41 %719 мм1.3 м/с5 %
    08:00Практически безоблачно+30°C38 %719 мм1.4 м/с6 %
    11:00Ясно и безоблачно+33°C24 %719 мм0.0 м/с2 %
    14:00Ясно и безоблачно+36°C20 %718 мм1.5 м/с5 %
    17:00Практически безоблачно+36°C20 %718 мм1.2 м/с5 %
    20:00Практически безоблачно+32°C23 %718 мм2.0 м/с2 %
    23:00Ясно и безоблачно+28°C34 %718 мм4.8 м/с2 %
  • 25июля
    Четверг
    +24°
    +39°
    Ясно и безоблачно
    ВремяПогодаТемператураВлажностьДавлениеВетер, м/сВероятность осадков
    02:00Ясно и безоблачно+26°C44 %717 мм2.5 м/с2 %
    05:00Ясно и безоблачно+24°C53 %718 мм2.5 м/с2 %
    08:00Ясно и безоблачно+31°C35 %719 мм4.2 м/с2 %
    11:00Ясно и безоблачно+35°C21 %718 мм3.8 м/с2 %
    14:00Ясно и безоблачно+38°C15 %718 мм2.0 м/с2 %
    17:00Ясно и безоблачно+38°C15 %717 мм1.7 м/с3 %
    20:00Ясно и безоблачно+34°C20 %718 мм2.5 м/с2 %
    23:00Ясно и безоблачно+29°C22 %718 мм3.1 м/с2 %
Мы используем cookies
Соглашаюсь